Bondurant, Wyoming
Current Conditions -  °F | °C
As of 12:51 PM on Sunday 21 Dec 2014 (Local Time) from KJAC Reporting Station
Blowing Snow Blowing Snow  
Wind Chill: 25°   Ceiling: 2500
Heat Index: 36°   Visibility: 3mi
Dew Point: 34°   Wind: 21mph
Humidity: 93%   Direction: 220°SW
Pressure: 29.62"   Gusts: 23mph
Location:  43.2°N, 110.41°W
Report Text: KJAC 211951Z 22018G20KT 03SM BLSN OVC025 02/01 A2962
Loading
Personal Weather Stations






























Interactive Weather Map New forecast layout! Learn more

10-Day Weather Forecast

Advertisements
Track Severe Weather on mobile